Time;durP1;ratioP1;P1;durP2;ratioP2;P2;SDS_P1;SDS_P2;PMS_P1;PMS_P2;Temp;Humidity;BMP_temperature;BMP_pressure;BME280_temperature;BME280_humidity;BME280_pressure;Samples;Min_cycle;Max_cycle;Signal;HPM_P1;HPM_P2
2021/01/07 00:02:06;;;;;;;;;;;4.90;96.20;;;;;;4301844;33;20012;-23
2021/01/07 00:04:51;;;;;;;;;;;4.90;96.20;;;;;;4302028;33;20386;-24
2021/01/07 00:07:37;;;;;;;;;;;4.80;96.10;;;;;;4302024;33;19983;-23
2021/01/07 00:10:22;;;;;;;;;;;4.90;96.20;;;;;;4302006;33;19951;-23
2021/01/07 00:13:07;;;;;;;;;;;4.80;96.20;;;;;;4301963;33;19955;-23
2021/01/07 00:15:52;;;;;;;;;;;4.90;96.30;;;;;;4302014;33;20013;-23
2021/01/07 00:18:37;;;;;;;;;;;4.90;96.30;;;;;;4301830;33;20314;-23
2021/01/07 00:21:22;;;;;;;;;;;4.80;96.30;;;;;;4301905;33;20327;-24
2021/01/07 00:24:07;;;;;;;;;;;4.80;96.30;;;;;;4301885;33;19975;-23
2021/01/07 00:26:52;;;;;;;;;;;4.90;96.30;;;;;;4301785;33;19956;-23
2021/01/07 00:29:37;;;;;;;;;;;4.90;96.30;;;;;;4301785;33;19976;-23
2021/01/07 00:32:23;;;;;;;;;;;4.80;96.20;;;;;;4301651;33;19956;-23
2021/01/07 00:35:14;;;;;;;;;;;4.90;96.20;;;;;;4301728;33;19955;-23
2021/01/07 00:38:02;;;;;;;;;;;4.80;96.20;;;;;;4301668;33;19947;-23
2021/01/07 00:40:47;;;;;;;;;;;4.80;96.10;;;;;;4301558;33;19951;-23
2021/01/07 00:43:35;;;;;;;;;;;4.80;96.10;;;;;;4301750;33;20017;-23
2021/01/07 00:46:20;;;;;;;;;;;4.80;96.00;;;;;;4301705;33;19956;-23
2021/01/07 00:49:05;;;;;;;;;;;4.80;96.00;;;;;;4301591;33;20388;-23
2021/01/07 00:51:51;;;;;;;;;;;4.80;96.00;;;;;;4301460;33;20316;-23
2021/01/07 00:54:36;;;;;;;;;;;4.80;96.00;;;;;;4301666;33;19959;-23
2021/01/07 00:57:24;;;;;;;;;;;4.80;96.00;;;;;;4301571;33;20013;-23
2021/01/07 01:00:12;;;;;;;;;;;4.80;96.00;;;;;;4301375;33;19968;-23
2021/01/07 01:02:57;;;;;;;;;;;4.70;95.90;;;;;;4310502;33;19987;-23
2021/01/07 01:05:42;;;;;;;;;;;4.70;95.90;;;;;;4301378;33;20425;-23
2021/01/07 01:08:27;;;;;;;;;;;4.70;96.00;;;;;;4310693;33;19984;-23
2021/01/07 01:11:13;;;;;;;;;;;4.70;95.90;;;;;;4301458;33;19980;-23
2021/01/07 01:13:58;;;;;;;;;;;4.70;95.90;;;;;;4301340;33;19992;-23
2021/01/07 01:16:48;;;;;;;;;;;4.70;95.90;;;;;;4301306;33;19951;-23
2021/01/07 01:19:33;;;;;;;;;;;4.70;96.00;;;;;;4304120;33;20425;-23
2021/01/07 01:22:18;;;;;;;;;;;4.60;95.90;;;;;;4304375;33;19951;-24
2021/01/07 01:25:08;;;;;;;;;;;4.60;95.90;;;;;;4304319;33;19976;-23
2021/01/07 01:27:53;;;;;;;;;;;4.60;95.90;;;;;;4303366;33;20380;-23
2021/01/07 01:30:38;;;;;;;;;;;4.60;95.90;;;;;;4304262;33;19956;-23
2021/01/07 01:33:23;;;;;;;;;;;4.60;95.90;;;;;;4304122;33;19951;-23
2021/01/07 01:36:08;;;;;;;;;;;4.60;95.90;;;;;;4304068;33;19972;-23
2021/01/07 01:38:54;;;;;;;;;;;4.60;96.30;;;;;;4304116;33;19975;-24
2021/01/07 01:41:43;;;;;;;;;;;4.60;95.90;;;;;;4303949;33;20405;-23
2021/01/07 01:44:28;;;;;;;;;;;4.60;95.90;;;;;;4304060;33;19978;-23
2021/01/07 01:47:13;;;;;;;;;;;4.60;96.30;;;;;;4304006;33;19951;-24
2021/01/07 01:49:58;;;;;;;;;;;4.60;95.90;;;;;;4303702;33;19955;-23
2021/01/07 01:52:43;;;;;;;;;;;4.60;95.90;;;;;;4303863;33;19952;-23
2021/01/07 01:55:28;;;;;;;;;;;4.60;95.90;;;;;;4303891;33;19984;-24
2021/01/07 01:58:14;;;;;;;;;;;4.60;95.90;;;;;;4303654;33;19975;-23
2021/01/07 02:00:59;;;;;;;;;;;4.60;95.90;;;;;;4303653;33;19955;-23
2021/01/07 02:03:46;;;;;;;;;;;4.60;95.90;;;;;;4303690;33;19976;-23
2021/01/07 02:06:34;;;;;;;;;;;4.60;95.90;;;;;;4312844;33;19952;-23
2021/01/07 02:09:19;;;;;;;;;;;4.60;95.90;;;;;;4303605;33;20004;-23
2021/01/07 02:12:05;;;;;;;;;;;4.50;95.90;;;;;;4303674;33;19987;-23
2021/01/07 02:14:50;;;;;;;;;;;4.50;95.80;;;;;;4303477;33;20338;-23
2021/01/07 02:17:35;;;;;;;;;;;4.50;95.80;;;;;;4303464;33;19990;-23
2021/01/07 02:20:23;;;;;;;;;;;4.50;95.80;;;;;;4303529;33;19956;-23
2021/01/07 02:23:11;;;;;;;;;;;4.50;95.80;;;;;;4312636;33;19962;-23
2021/01/07 02:25:59;;;;;;;;;;;4.50;95.80;;;;;;4303271;33;20338;-23
2021/01/07 02:28:45;;;;;;;;;;;4.50;95.90;;;;;;4303101;33;20015;-23
2021/01/07 02:31:30;;;;;;;;;;;4.50;96.20;;;;;;4303298;33;19951;-23
2021/01/07 02:34:16;;;;;;;;;;;4.50;95.80;;;;;;4312583;33;20330;-23
2021/01/07 02:37:01;;;;;;;;;;;4.50;95.90;;;;;;4303283;33;19968;-23
2021/01/07 02:39:47;;;;;;;;;;;4.50;95.80;;;;;;4302994;33;20333;-23
2021/01/07 02:42:32;;;;;;;;;;;4.50;95.90;;;;;;4303202;33;20334;-23
2021/01/07 02:45:17;;;;;;;;;;;4.40;95.80;;;;;;4303212;33;20335;-23
2021/01/07 02:48:02;;;;;;;;;;;4.40;95.70;;;;;;4312304;33;19971;-23
2021/01/07 02:50:47;;;;;;;;;;;4.40;95.70;;;;;;4303005;33;19951;-23
2021/01/07 02:53:33;;;;;;;;;;;4.40;95.80;;;;;;4302815;33;19980;-23
2021/01/07 02:56:18;;;;;;;;;;;4.40;95.80;;;;;;4303011;33;19996;-23
2021/01/07 02:59:03;;;;;;;;;;;4.40;95.80;;;;;;4302952;33;20397;-23
2021/01/07 03:01:48;;;;;;;;;;;4.40;95.70;;;;;;4312074;33;20377;-23
2021/01/07 03:04:33;;;;;;;;;;;4.40;95.70;;;;;;4312137;33;19959;-23
2021/01/07 03:07:20;;;;;;;;;;;4.40;95.80;;;;;;4302807;33;19955;-24
2021/01/07 03:10:10;;;;;;;;;;;4.40;95.80;;;;;;4302828;33;19975;-23
2021/01/07 03:12:55;;;;;;;;;;;4.40;95.80;;;;;;4312068;33;20007;-24
2021/01/07 03:15:40;;;;;;;;;;;4.40;95.70;;;;;;4302661;33;19984;-23
2021/01/07 03:18:25;;;;;;;;;;;4.30;95.70;;;;;;4302552;33;19991;-23
2021/01/07 03:21:10;;;;;;;;;;;4.30;95.70;;;;;;4302732;33;20004;-24
2021/01/07 03:23:55;;;;;;;;;;;4.30;95.80;;;;;;4302727;33;20381;-23
2021/01/07 03:26:40;;;;;;;;;;;4.30;95.70;;;;;;4311812;33;19980;-23
2021/01/07 03:29:25;;;;;;;;;;;4.30;95.80;;;;;;4302569;33;20035;-23
2021/01/07 03:32:10;;;;;;;;;;;4.30;96.00;;;;;;4302448;33;20011;-23
2021/01/07 03:34:56;;;;;;;;;;;4.30;95.70;;;;;;4311507;33;19959;-23
2021/01/07 03:37:41;;;;;;;;;;;4.30;95.70;;;;;;4302436;33;20377;-23
2021/01/07 03:40:28;;;;;;;;;;;4.30;95.70;;;;;;4301513;33;20035;-23
2021/01/07 03:43:13;;;;;;;;;;;4.20;95.70;;;;;;4302316;33;19950;-23
2021/01/07 03:45:58;;;;;;;;;;;4.30;95.70;;;;;;4302353;33;19972;-23
2021/01/07 03:48:43;;;;;;;;;;;4.30;95.70;;;;;;4302560;33;19954;-23
2021/01/07 03:51:29;;;;;;;;;;;4.20;95.70;;;;;;4302305;33;19976;-23
2021/01/07 03:54:17;;;;;;;;;;;4.20;95.70;;;;;;4302246;33;19960;-23
2021/01/07 03:57:02;;;;;;;;;;;4.20;95.70;;;;;;4302164;33;20339;-24
2021/01/07 03:59:47;;;;;;;;;;;4.20;95.70;;;;;;4302090;33;19955;-23
2021/01/07 04:02:33;;;;;;;;;;;4.20;95.70;;;;;;4301817;33;20004;-23
2021/01/07 04:05:18;;;;;;;;;;;4.20;95.70;;;;;;4311372;33;19955;-23
2021/01/07 04:08:04;;;;;;;;;;;4.20;95.70;;;;;;4301962;33;19955;-23
2021/01/07 04:10:48;;;;;;;;;;;4.30;95.80;;;;;;4301693;33;20401;-23
2021/01/07 04:13:34;;;;;;;;;;;4.20;95.80;;;;;;4302022;33;19951;-23
2021/01/07 04:16:19;;;;;;;;;;;4.20;95.90;;;;;;4301848;33;19976;-23
2021/01/07 04:19:04;;;;;;;;;;;4.20;95.80;;;;;;4301909;33;19951;-23
2021/01/07 04:21:48;;;;;;;;;;;4.30;95.80;;;;;;4301928;33;20377;-23
2021/01/07 04:24:34;;;;;;;;;;;4.30;95.80;;;;;;4301805;33;19976;-23
2021/01/07 04:27:19;;;;;;;;;;;4.30;95.80;;;;;;4301828;33;20018;-23
2021/01/07 04:30:05;;;;;;;;;;;4.30;95.80;;;;;;4301861;33;20398;-23
2021/01/07 04:32:54;;;;;;;;;;;4.30;95.80;;;;;;4310937;33;19951;-23
2021/01/07 04:35:42;;;;;;;;;;;4.30;95.80;;;;;;4310979;33;19952;-23
2021/01/07 04:38:27;;;;;;;;;;;4.30;95.80;;;;;;4310969;33;19980;-23
2021/01/07 04:41:12;;;;;;;;;;;4.30;95.70;;;;;;4301621;33;19951;-23
2021/01/07 04:43:58;;;;;;;;;;;4.30;95.70;;;;;;4301796;33;19976;-23
2021/01/07 04:46:46;;;;;;;;;;;4.30;95.70;;;;;;4301674;33;19951;-23
2021/01/07 04:49:31;;;;;;;;;;;4.30;95.70;;;;;;4310836;33;19975;-23
2021/01/07 04:52:17;;;;;;;;;;;4.30;95.70;;;;;;4301591;33;20042;-23
2021/01/07 04:55:02;;;;;;;;;;;4.30;95.70;;;;;;4301624;33;20357;-23
2021/01/07 04:57:48;;;;;;;;;;;4.30;95.70;;;;;;4310619;33;19988;-23
2021/01/07 05:00:33;;;;;;;;;;;4.30;95.80;;;;;;4300722;33;19980;-23
2021/01/07 05:03:20;;;;;;;;;;;4.30;95.80;;;;;;4301353;33;20021;-23
2021/01/07 05:06:05;;;;;;;;;;;4.30;95.80;;;;;;4301603;33;20019;-23
2021/01/07 05:09:09;;;;;;;;;;;4.30;95.70;;;;;;4310812;33;19979;-23
2021/01/07 05:11:54;;;;;;;;;;;4.20;95.70;;;;;;4310784;33;19980;-23
2021/01/07 05:14:43;;;;;;;;;;;4.30;95.80;;;;;;4301337;33;20380;-23
2021/01/07 05:17:29;;;;;;;;;;;4.20;95.70;;;;;;4310597;33;19959;-23
2021/01/07 05:20:13;;;;;;;;;;;4.20;95.70;;;;;;4310704;33;19980;-23
2021/01/07 05:23:00;;;;;;;;;;;4.30;95.70;;;;;;4301301;33;19956;-23
2021/01/07 05:25:48;;;;;;;;;;;4.30;95.80;;;;;;4310579;33;19991;-23
2021/01/07 05:28:36;;;;;;;;;;;4.30;95.80;;;;;;4310657;33;19955;-23
2021/01/07 05:31:22;;;;;;;;;;;4.20;95.80;;;;;;4301450;33;20379;-23
2021/01/07 05:34:13;;;;;;;;;;;4.20;95.80;;;;;;4301292;33;19955;-23
2021/01/07 05:36:59;;;;;;;;;;;4.30;95.80;;;;;;4310541;33;19951;-23
2021/01/07 05:39:45;;;;;;;;;;;4.30;95.80;;;;;;4301154;33;19960;-23
2021/01/07 05:42:38;;;;;;;;;;;4.30;95.80;;;;;;4301227;33;19980;-23
2021/01/07 05:45:43;;;;;;;;;;;4.30;95.80;;;;;;4310569;33;20385;-23
2021/01/07 05:48:32;;;;;;;;;;;4.30;95.70;;;;;;4301139;33;19980;-23
2021/01/07 05:51:18;;;;;;;;;;;4.20;95.80;;;;;;4310371;33;20061;-23
2021/01/07 05:54:03;;;;;;;;;;;4.30;95.80;;;;;;4310038;33;19960;-23
2021/01/07 05:56:51;;;;;;;;;;;4.30;95.80;;;;;;4300804;33;20408;-23
2021/01/07 05:59:36;;;;;;;;;;;4.30;95.70;;;;;;4301089;33;19972;-23
2021/01/07 06:02:22;;;;;;;;;;;4.30;95.80;;;;;;4300811;33;20390;-24
2021/01/07 06:05:09;;;;;;;;;;;4.30;95.70;;;;;;4302040;33;20362;-23
2021/01/07 06:07:55;;;;;;;;;;;4.20;95.70;;;;;;4312921;33;19987;-23
2021/01/07 06:10:40;;;;;;;;;;;4.30;95.80;;;;;;4313002;33;19960;-24
2021/01/07 06:13:25;;;;;;;;;;;4.30;95.70;;;;;;4303579;33;20007;-23
2021/01/07 06:16:17;;;;;;;;;;;4.30;95.80;;;;;;4312911;33;19980;-23
2021/01/07 06:19:21;;;;;;;;;;;4.30;95.80;;;;;;4303244;33;19951;-24
2021/01/07 06:22:10;;;;;;;;;;;4.30;95.80;;;;;;4303199;33;20436;-23
2021/01/07 06:24:56;;;;;;;;;;;4.30;95.80;;;;;;4303446;33;20010;-23
2021/01/07 06:27:41;;;;;;;;;;;4.30;95.80;;;;;;4303318;33;20003;-23
2021/01/07 06:30:27;;;;;;;;;;;4.30;95.70;;;;;;4303367;33;19981;-23
2021/01/07 06:33:13;;;;;;;;;;;4.30;95.70;;;;;;4303386;33;19951;-23
2021/01/07 06:36:06;;;;;;;;;;;4.20;95.80;;;;;;4303626;33;19952;-23
2021/01/07 06:38:52;;;;;;;;;;;4.20;95.80;;;;;;4312423;33;20406;-23
2021/01/07 06:41:37;;;;;;;;;;;4.20;95.80;;;;;;4312523;33;19975;-23
2021/01/07 06:44:23;;;;;;;;;;;4.20;95.80;;;;;;4303087;33;19980;-23
2021/01/07 06:47:16;;;;;;;;;;;4.20;95.80;;;;;;4303131;33;20012;-23
2021/01/07 06:50:03;;;;;;;;;;;4.30;95.70;;;;;;4312491;33;19984;-23
2021/01/07 06:52:48;;;;;;;;;;;4.20;95.70;;;;;;4302981;33;19980;-23
2021/01/07 06:55:34;;;;;;;;;;;4.20;96.10;;;;;;4312301;33;20004;-23
2021/01/07 06:58:19;;;;;;;;;;;4.20;95.80;;;;;;4303086;33;19951;-23
2021/01/07 07:01:05;;;;;;;;;;;4.20;95.80;;;;;;4302739;33;19960;-24
2021/01/07 07:03:51;;;;;;;;;;;4.20;95.80;;;;;;4302900;33;19948;-23
2021/01/07 07:06:38;;;;;;;;;;;4.20;95.80;;;;;;4312185;33;20315;-23
2021/01/07 07:09:24;;;;;;;;;;;4.20;95.80;;;;;;4303151;33;19948;-23
2021/01/07 07:12:28;;;;;;;;;;;4.20;95.80;;;;;;4302772;33;20008;-23
2021/01/07 07:15:13;;;;;;;;;;;4.20;95.80;;;;;;4302831;33;19980;-23
2021/01/07 07:17:58;;;;;;;;;;;4.20;95.80;;;;;;4302779;33;19974;-23
2021/01/07 07:20:46;;;;;;;;;;;4.20;95.70;;;;;;4302666;33;19991;-23
2021/01/07 07:23:32;;;;;;;;;;;4.20;95.70;;;;;;4302689;33;19951;-23
2021/01/07 07:26:33;;;;;;;;;;;4.20;96.10;;;;;;4302348;33;19984;-23
2021/01/07 07:29:20;;;;;;;;;;;4.20;95.70;;;;;;4311787;33;19959;-23
2021/01/07 07:32:21;;;;;;;;;;;4.10;95.80;;;;;;4302511;33;19979;-23
2021/01/07 07:35:22;;;;;;;;;;;4.20;95.80;;;;;;4302408;33;19983;-23
2021/01/07 07:38:11;;;;;;;;;;;4.10;95.80;;;;;;4302383;33;19955;-23
2021/01/07 07:41:01;;;;;;;;;;;4.20;95.80;;;;;;4302489;33;20040;-23
2021/01/07 07:43:46;;;;;;;;;;;4.20;95.80;;;;;;4311598;33;19959;-23
2021/01/07 07:46:31;;;;;;;;;;;4.20;95.80;;;;;;4302499;33;19952;-23
2021/01/07 07:49:16;;;;;;;;;;;4.20;95.80;;;;;;4302211;33;19967;-23
2021/01/07 07:52:02;;;;;;;;;;;4.20;95.80;;;;;;4302244;33;20042;-23
2021/01/07 07:54:57;;;;;;;;;;;4.20;95.80;;;;;;4311549;33;19980;-23
2021/01/07 07:57:48;;;;;;;;;;;4.20;95.80;;;;;;4302067;33;19960;-23
2021/01/07 08:00:34;;;;;;;;;;;4.20;95.80;;;;;;4311379;33;19992;-23
2021/01/07 08:03:25;;;;;;;;;;;4.20;95.80;;;;;;4301942;33;20319;-23
2021/01/07 08:06:10;;;;;;;;;;;4.20;95.80;;;;;;4302015;33;20008;-23
2021/01/07 08:09:02;;;;;;;;;;;4.20;95.80;;;;;;4302013;33;19983;-23
2021/01/07 08:11:49;;;;;;;;;;;4.20;95.80;;;;;;4311307;33;19959;-24
2021/01/07 08:14:40;;;;;;;;;;;4.20;95.80;;;;;;4300946;33;19951;-23
2021/01/07 08:17:25;;;;;;;;;;;4.10;95.80;;;;;;4311084;33;19980;-23
2021/01/07 08:20:11;;;;;;;;;;;4.10;95.80;;;;;;4301916;33;19983;-23
2021/01/07 08:22:56;;;;;;;;;;;4.10;95.80;;;;;;4301998;33;19979;-23
2021/01/07 08:25:44;;;;;;;;;;;4.10;95.80;;;;;;4301853;33;19976;-23
2021/01/07 08:28:30;;;;;;;;;;;4.10;95.80;;;;;;4301611;33;19984;-24
2021/01/07 08:31:18;;;;;;;;;;;4.10;95.80;;;;;;4301726;33;19972;-23
2021/01/07 08:34:04;;;;;;;;;;;4.10;95.80;;;;;;4310996;33;20010;-23
2021/01/07 08:36:51;;;;;;;;;;;4.10;95.80;;;;;;4301714;33;19951;-23
2021/01/07 08:39:37;;;;;;;;;;;4.10;95.80;;;;;;4301832;33;19975;-23
2021/01/07 08:42:22;;;;;;;;;;;4.10;95.80;;;;;;4301690;33;19948;-23
2021/01/07 08:45:11;;;;;;;;;;;4.10;95.80;;;;;;4301752;33;19974;-23
2021/01/07 08:48:04;;;;;;;;;;;4.10;95.80;;;;;;4301711;33;19975;-24
2021/01/07 08:50:50;;;;;;;;;;;4.10;95.90;;;;;;4310868;33;19959;-27
2021/01/07 08:53:48;;;;;;;;;;;4.10;95.90;;;;;;4310875;33;19991;-24
2021/01/07 08:56:33;;;;;;;;;;;4.10;95.90;;;;;;4310727;33;19963;-23
2021/01/07 08:59:33;;;;;;;;;;;4.10;95.90;;;;;;4301535;33;19952;-23
2021/01/07 09:02:21;;;;;;;;;;;4.10;95.90;;;;;;4310720;33;20326;-23
2021/01/07 09:05:08;;;;;;;;;;;4.10;95.90;;;;;;4310654;33;19979;-23
2021/01/07 09:08:04;;;;;;;;;;;4.10;95.80;;;;;;4301438;33;20368;-23
2021/01/07 09:10:49;;;;;;;;;;;4.10;95.90;;;;;;4301326;33;20008;-23
2021/01/07 09:13:34;;;;;;;;;;;4.00;95.80;;;;;;4301405;33;19976;-23
2021/01/07 09:16:20;;;;;;;;;;;4.00;95.80;;;;;;4301445;33;19955;-23
2021/01/07 09:19:08;;;;;;;;;;;4.00;95.80;;;;;;4310823;33;19988;-23
2021/01/07 09:22:00;;;;;;;;;;;4.00;95.90;;;;;;4310782;33;19955;-23
2021/01/07 09:24:45;;;;;;;;;;;4.00;95.90;;;;;;4301039;33;19999;-23
2021/01/07 09:27:31;;;;;;;;;;;4.00;95.90;;;;;;4301235;33;19951;-23
2021/01/07 09:30:16;;;;;;;;;;;4.00;95.90;;;;;;4301424;33;19991;-23
2021/01/07 09:33:05;;;;;;;;;;;4.00;95.90;;;;;;4301490;33;19952;-23
2021/01/07 09:35:51;;;;;;;;;;;4.00;95.90;;;;;;4301383;33;20008;-23
2021/01/07 09:38:38;;;;;;;;;;;4.00;95.80;;;;;;4301530;33;20002;-23
2021/01/07 09:41:24;;;;;;;;;;;4.00;95.90;;;;;;4304129;33;19984;-23
2021/01/07 09:44:09;;;;;;;;;;;4.00;95.90;;;;;;4304307;33;19976;-23
2021/01/07 09:46:54;;;;;;;;;;;4.00;95.90;;;;;;4303968;33;19981;-23
2021/01/07 09:49:40;;;;;;;;;;;4.00;95.90;;;;;;4303966;33;20023;-23
2021/01/07 09:52:25;;;;;;;;;;;4.00;95.90;;;;;;4313419;33;19990;-23
2021/01/07 09:55:11;;;;;;;;;;;4.00;95.90;;;;;;4313149;33;19999;-23
2021/01/07 09:57:57;;;;;;;;;;;4.00;95.90;;;;;;4303831;33;19959;-23
2021/01/07 10:00:42;;;;;;;;;;;4.00;95.90;;;;;;4303839;33;19955;-23
2021/01/07 10:03:26;;;;;;;;;;;4.00;95.90;;;;;;4303563;33;20000;-23
2021/01/07 10:06:11;;;;;;;;;;;4.00;96.00;;;;;;4303758;33;19955;-23
2021/01/07 10:08:56;;;;;;;;;;;4.00;95.90;;;;;;4303763;33;19955;-24
2021/01/07 10:11:42;;;;;;;;;;;4.00;95.90;;;;;;4303636;33;20000;-23
2021/01/07 10:14:27;;;;;;;;;;;4.00;95.90;;;;;;4303639;33;20373;-23
2021/01/07 10:17:13;;;;;;;;;;;4.00;95.90;;;;;;4302641;33;19955;-24
2021/01/07 10:19:58;;;;;;;;;;;4.00;96.20;;;;;;4303463;33;19955;-23
2021/01/07 10:22:43;;;;;;;;;;;4.00;95.90;;;;;;4303515;33;19972;-23
2021/01/07 10:25:29;;;;;;;;;;;4.00;95.90;;;;;;4313068;33;19959;-23
2021/01/07 10:28:14;;;;;;;;;;;4.00;95.90;;;;;;4303354;33;19976;-23
2021/01/07 10:31:02;;;;;;;;;;;4.00;95.90;;;;;;4312424;33;20302;-23
2021/01/07 10:33:47;;;;;;;;;;;4.00;96.00;;;;;;4303418;33;19951;-23
2021/01/07 10:36:33;;;;;;;;;;;4.00;96.00;;;;;;4303274;33;19971;-24
2021/01/07 10:39:22;;;;;;;;;;;4.00;96.00;;;;;;4303070;33;19951;-23
2021/01/07 10:42:09;;;;;;;;;;;4.00;96.00;;;;;;4303195;33;19988;-23
2021/01/07 10:44:54;;;;;;;;;;;4.00;96.00;;;;;;4303210;33;19959;-23
2021/01/07 10:47:44;;;;;;;;;;;4.00;96.00;;;;;;4303297;33;20389;-23
2021/01/07 10:50:33;;;;;;;;;;;4.00;96.00;;;;;;4302930;33;20342;-23
2021/01/07 10:53:31;;;;;;;;;;;4.00;96.00;;;;;;4303035;33;19952;-24
2021/01/07 10:56:22;;;;;;;;;;;4.00;96.00;;;;;;4303191;33;20035;-23
2021/01/07 10:59:13;;;;;;;;;;;4.00;96.00;;;;;;4302608;33;20338;-24
2021/01/07 11:02:13;;;;;;;;;;;4.00;96.00;;;;;;4302593;33;20402;-27
2021/01/07 11:05:18;;;;;;;;;;;4.00;96.00;;;;;;4302965;33;20004;-23
2021/01/07 11:08:03;;;;;;;;;;;4.00;96.10;;;;;;4302847;33;19952;-23
2021/01/07 11:10:52;;;;;;;;;;;4.00;96.10;;;;;;4302866;33;19956;-23
2021/01/07 11:13:41;;;;;;;;;;;4.00;96.10;;;;;;4302859;33;20030;-23
2021/01/07 11:16:34;;;;;;;;;;;4.00;96.10;;;;;;4302685;33;20004;-23
2021/01/07 11:19:22;;;;;;;;;;;4.00;96.10;;;;;;4311932;33;19948;-23
2021/01/07 11:22:19;;;;;;;;;;;4.00;96.10;;;;;;4302749;33;19959;-24
2021/01/07 11:25:05;;;;;;;;;;;4.00;96.10;;;;;;4302643;33;20012;-23
2021/01/07 11:27:53;;;;;;;;;;;4.00;96.10;;;;;;4302671;33;19955;-23
2021/01/07 11:30:39;;;;;;;;;;;3.90;96.10;;;;;;4311905;33;19980;-23
2021/01/07 11:33:25;;;;;;;;;;;4.00;96.20;;;;;;4302649;33;20306;-23
2021/01/07 11:36:17;;;;;;;;;;;4.00;96.10;;;;;;4311947;33;19963;-23
2021/01/07 11:39:04;;;;;;;;;;;4.00;96.10;;;;;;4302495;33;20084;-23
2021/01/07 11:42:04;;;;;;;;;;;4.00;96.10;;;;;;4302366;33;19972;-23
2021/01/07 11:44:53;;;;;;;;;;;4.00;96.20;;;;;;4302428;33;19983;-23
2021/01/07 11:47:44;;;;;;;;;;;4.00;96.10;;;;;;4302079;33;19955;-23
2021/01/07 11:50:36;;;;;;;;;;;4.00;96.20;;;;;;4302346;33;19952;-23
2021/01/07 11:53:22;;;;;;;;;;;4.00;96.10;;;;;;4311697;33;19984;-23
2021/01/07 11:56:07;;;;;;;;;;;4.00;96.20;;;;;;4302152;33;19975;-23
2021/01/07 11:58:53;;;;;;;;;;;4.00;96.20;;;;;;4302235;33;19950;-23
2021/01/07 12:01:39;;;;;;;;;;;4.00;96.20;;;;;;4301498;33;20305;-23
2021/01/07 12:04:24;;;;;;;;;;;4.00;96.20;;;;;;4301859;33;19976;-23
2021/01/07 12:07:30;;;;;;;;;;;4.00;96.20;;;;;;4301979;33;19951;-23
2021/01/07 12:10:17;;;;;;;;;;;4.00;96.20;;;;;;4300908;33;20004;-24
2021/01/07 12:13:08;;;;;;;;;;;4.00;96.60;;;;;;4301955;33;19996;-23
2021/01/07 12:15:54;;;;;;;;;;;4.00;96.20;;;;;;4301998;33;20319;-23
2021/01/07 12:18:39;;;;;;;;;;;4.00;96.20;;;;;;4301935;33;20000;-23
2021/01/07 12:21:25;;;;;;;;;;;4.00;96.30;;;;;;4302022;33;20004;-23
2021/01/07 12:24:11;;;;;;;;;;;4.00;96.20;;;;;;4301952;33;19980;-23
2021/01/07 12:26:56;;;;;;;;;;;4.10;96.30;;;;;;4301889;33;20389;-23
2021/01/07 12:29:42;;;;;;;;;;;4.00;96.30;;;;;;4310944;33;19976;-23
2021/01/07 12:32:33;;;;;;;;;;;4.00;96.30;;;;;;4301797;33;19951;-23
2021/01/07 12:35:23;;;;;;;;;;;4.00;96.30;;;;;;4301765;33;20333;-24
2021/01/07 12:38:20;;;;;;;;;;;4.10;96.30;;;;;;4310945;33;19954;-23
2021/01/07 12:41:06;;;;;;;;;;;4.10;96.30;;;;;;4301722;33;19952;-23
2021/01/07 12:43:53;;;;;;;;;;;4.10;96.30;;;;;;4300349;33;20397;-23
2021/01/07 12:46:41;;;;;;;;;;;4.10;96.30;;;;;;4301128;33;19976;-23
2021/01/07 12:49:30;;;;;;;;;;;4.10;96.30;;;;;;4310763;33;19984;-23
2021/01/07 12:52:16;;;;;;;;;;;4.10;96.30;;;;;;4301046;33;19955;-24
2021/01/07 12:55:02;;;;;;;;;;;4.10;96.30;;;;;;4301124;33;20359;-23
2021/01/07 12:57:59;;;;;;;;;;;4.10;96.70;;;;;;4301086;33;20398;-23
2021/01/07 13:00:50;;;;;;;;;;;4.10;96.30;;;;;;4310498;33;19984;-23
2021/01/07 13:03:38;;;;;;;;;;;4.10;96.30;;;;;;4301019;33;20398;-23
2021/01/07 13:06:31;;;;;;;;;;;4.10;96.30;;;;;;4301291;33;19963;-24
2021/01/07 13:09:17;;;;;;;;;;;4.10;96.30;;;;;;4310392;33;20019;-23
2021/01/07 13:12:02;;;;;;;;;;;4.10;96.30;;;;;;4301302;33;20386;-23
2021/01/07 13:14:48;;;;;;;;;;;4.10;96.30;;;;;;4304011;33;19952;-23
2021/01/07 13:17:33;;;;;;;;;;;4.20;96.40;;;;;;4304090;33;19955;-23
2021/01/07 13:20:19;;;;;;;;;;;4.10;96.40;;;;;;4303864;33;19988;-24
2021/01/07 13:23:04;;;;;;;;;;;4.20;96.40;;;;;;4303944;33;19951;-23
2021/01/07 13:25:52;;;;;;;;;;;4.10;96.40;;;;;;4304037;33;19950;-23
2021/01/07 13:28:42;;;;;;;;;;;4.20;96.40;;;;;;4312982;33;19956;-23
2021/01/07 13:31:27;;;;;;;;;;;4.20;96.40;;;;;;4303768;33;19987;-23
2021/01/07 13:34:15;;;;;;;;;;;4.20;96.40;;;;;;4303732;33;20297;-24
2021/01/07 13:37:01;;;;;;;;;;;4.20;96.40;;;;;;4304157;33;19991;-23
2021/01/07 13:39:46;;;;;;;;;;;4.20;96.40;;;;;;4303731;33;19951;-23
2021/01/07 13:42:31;;;;;;;;;;;4.20;96.40;;;;;;4303639;33;19952;-23
2021/01/07 13:45:16;;;;;;;;;;;4.20;96.40;;;;;;4303898;33;19990;-23
2021/01/07 13:48:02;;;;;;;;;;;4.20;96.40;;;;;;4303622;33;19975;-23
2021/01/07 13:50:50;;;;;;;;;;;4.20;96.40;;;;;;4303508;33;20002;-23
2021/01/07 13:53:36;;;;;;;;;;;4.20;96.40;;;;;;4303786;33;19987;-23
2021/01/07 13:56:22;;;;;;;;;;;4.20;96.40;;;;;;4303351;33;20412;-23
2021/01/07 13:59:07;;;;;;;;;;;4.20;96.40;;;;;;4303274;33;20036;-23
2021/01/07 14:01:51;;;;;;;;;;;4.20;96.40;;;;;;4303337;33;20310;-23
2021/01/07 14:04:38;;;;;;;;;;;4.20;96.40;;;;;;4303249;33;20015;-23
2021/01/07 14:07:25;;;;;;;;;;;4.20;96.40;;;;;;4303651;33;19975;-23
2021/01/07 14:10:10;;;;;;;;;;;4.20;96.40;;;;;;4303280;33;19951;-23
2021/01/07 14:12:56;;;;;;;;;;;4.20;96.40;;;;;;4303408;33;19951;-23
2021/01/07 14:15:43;;;;;;;;;;;4.20;96.40;;;;;;4303540;33;20361;-24
2021/01/07 14:18:28;;;;;;;;;;;4.20;96.40;;;;;;4312352;33;19976;-23
2021/01/07 14:21:14;;;;;;;;;;;4.20;96.40;;;;;;4303162;33;19958;-23
2021/01/07 14:24:02;;;;;;;;;;;4.20;96.40;;;;;;4302797;33;19951;-24
2021/01/07 14:26:56;;;;;;;;;;;4.20;96.40;;;;;;4303484;33;20010;-23
2021/01/07 14:29:44;;;;;;;;;;;4.20;96.40;;;;;;4312750;33;20305;-23
2021/01/07 14:32:31;;;;;;;;;;;4.20;96.40;;;;;;4312503;33;19951;-23
2021/01/07 14:35:17;;;;;;;;;;;4.20;96.40;;;;;;4312512;33;19991;-23
2021/01/07 14:38:03;;;;;;;;;;;4.20;96.80;;;;;;4302843;33;19955;-23
2021/01/07 14:40:48;;;;;;;;;;;4.30;96.50;;;;;;4302796;33;20339;-24
2021/01/07 14:43:34;;;;;;;;;;;4.30;96.50;;;;;;4302888;33;20419;-23
2021/01/07 14:46:20;;;;;;;;;;;4.30;96.50;;;;;;4303045;33;20302;-24
2021/01/07 14:49:06;;;;;;;;;;;4.30;96.50;;;;;;4302609;33;19999;-24
2021/01/07 14:51:56;;;;;;;;;;;4.30;96.50;;;;;;4302901;33;19972;-23
2021/01/07 14:54:43;;;;;;;;;;;4.30;96.50;;;;;;4312281;33;20374;-23
2021/01/07 14:57:39;;;;;;;;;;;4.30;96.50;;;;;;4312199;33;19955;-24
2021/01/07 15:00:44;;;;;;;;;;;4.30;96.40;;;;;;4311837;33;20376;-23
2021/01/07 15:03:48;;;;;;;;;;;4.30;96.40;;;;;;4302736;33;19992;-23
2021/01/07 15:06:49;;;;;;;;;;;4.30;96.40;;;;;;4311772;33;20033;-23
2021/01/07 15:10:07;;;;;;;;;;;4.30;96.40;;;;;;4302380;33;19992;-24
2021/01/07 15:13:02;;;;;;;;;;;4.40;96.80;;;;;;4302342;33;19955;-23
2021/01/07 15:15:48;;;;;;;;;;;4.30;96.40;;;;;;4302279;33;19972;-23
2021/01/07 15:18:38;;;;;;;;;;;4.40;96.40;;;;;;4302105;33;20008;-23
2021/01/07 15:21:40;;;;;;;;;;;4.30;96.30;;;;;;4302490;33;20366;-23
2021/01/07 15:24:34;;;;;;;;;;;4.30;96.30;;;;;;4302226;33;20318;-24
2021/01/07 15:27:34;;;;;;;;;;;4.30;96.30;;;;;;4311471;33;20318;-23
2021/01/07 15:30:24;;;;;;;;;;;4.30;96.30;;;;;;4311322;33;19947;-23
2021/01/07 15:33:10;;;;;;;;;;;4.30;96.30;;;;;;4302017;33;19959;-23
2021/01/07 15:35:56;;;;;;;;;;;4.30;96.30;;;;;;4301654;33;19951;-23
2021/01/07 15:39:00;;;;;;;;;;;4.30;96.30;;;;;;4311302;33;20004;-23
2021/01/07 15:41:54;;;;;;;;;;;4.30;96.30;;;;;;4302104;33;19952;-23
2021/01/07 15:44:45;;;;;;;;;;;4.30;96.30;;;;;;4302078;33;20314;-23
2021/01/07 15:47:48;;;;;;;;;;;4.30;96.30;;;;;;4302277;33;19984;-23
2021/01/07 15:50:35;;;;;;;;;;;4.30;96.30;;;;;;4301881;33;19992;-24
2021/01/07 15:53:23;;;;;;;;;;;4.30;96.30;;;;;;4301746;33;20013;-23
2021/01/07 15:56:29;;;;;;;;;;;4.30;96.20;;;;;;4302095;33;20301;-23
2021/01/07 15:59:21;;;;;;;;;;;4.30;96.20;;;;;;4301896;33;19955;-23
2021/01/07 16:02:06;;;;;;;;;;;4.20;96.20;;;;;;4301799;33;19980;-23
2021/01/07 16:04:57;;;;;;;;;;;4.30;96.20;;;;;;4302093;33;19952;-23
2021/01/07 16:07:58;;;;;;;;;;;4.20;96.50;;;;;;4301963;33;19977;-23
2021/01/07 16:10:56;;;;;;;;;;;4.30;96.20;;;;;;4301628;33;19951;-23
2021/01/07 16:13:41;;;;;;;;;;;4.20;96.10;;;;;;4301645;33;19951;-23
2021/01/07 16:16:26;;;;;;;;;;;4.30;96.20;;;;;;4301748;33;19986;-23
2021/01/07 16:19:12;;;;;;;;;;;4.20;96.20;;;;;;4301294;33;19972;-23
2021/01/07 16:22:16;;;;;;;;;;;4.20;96.20;;;;;;4301455;33;20333;-23
2021/01/07 16:25:03;;;;;;;;;;;4.30;96.20;;;;;;4301413;33;20350;-23
2021/01/07 16:27:49;;;;;;;;;;;4.20;96.20;;;;;;4301376;33;19955;-23
2021/01/07 16:30:35;;;;;;;;;;;4.20;96.20;;;;;;4301520;33;19962;-23
2021/01/07 16:33:20;;;;;;;;;;;4.20;96.20;;;;;;4311037;33;19960;-23